sensor_id;sensor_type;location;lat;lon;timestamp;temperature;humidity
41294;DHT22;27037;52.010;4.446;2023-05-10T00:01:01;12.10;99.90
41294;DHT22;27037;52.010;4.446;2023-05-10T00:03:28;12.10;99.90
41294;DHT22;27037;52.010;4.446;2023-05-10T00:05:54;12.10;99.90
41294;DHT22;27037;52.010;4.446;2023-05-10T00:08:20;12.10;99.90
41294;DHT22;27037;52.010;4.446;2023-05-10T00:10:46;12.10;99.90
41294;DHT22;27037;52.010;4.446;2023-05-10T00:13:11;12.10;99.90
41294;DHT22;27037;52.010;4.446;2023-05-10T00:15:37;12.00;99.90
41294;DHT22;27037;52.010;4.446;2023-05-10T00:18:03;12.00;99.90
41294;DHT22;27037;52.010;4.446;2023-05-10T00:20:28;12.00;99.90
41294;DHT22;27037;52.010;4.446;2023-05-10T00:22:54;12.00;99.90
41294;DHT22;27037;52.010;4.446;2023-05-10T00:25:19;11.90;99.90
41294;DHT22;27037;52.010;4.446;2023-05-10T00:27:47;11.90;99.90
41294;DHT22;27037;52.010;4.446;2023-05-10T00:30:12;11.90;99.90
41294;DHT22;27037;52.010;4.446;2023-05-10T00:32:38;11.90;99.90
41294;DHT22;27037;52.010;4.446;2023-05-10T00:35:04;11.90;99.90
41294;DHT22;27037;52.010;4.446;2023-05-10T00:37:30;11.90;99.90
41294;DHT22;27037;52.010;4.446;2023-05-10T00:39:55;11.90;99.90
41294;DHT22;27037;52.010;4.446;2023-05-10T00:42:21;11.90;99.90
41294;DHT22;27037;52.010;4.446;2023-05-10T00:44:47;11.90;99.90
41294;DHT22;27037;52.010;4.446;2023-05-10T00:47:13;11.90;99.90
41294;DHT22;27037;52.010;4.446;2023-05-10T00:49:39;11.90;99.90
41294;DHT22;27037;52.010;4.446;2023-05-10T00:52:05;11.90;99.90
41294;DHT22;27037;52.010;4.446;2023-05-10T00:54:31;11.90;99.90
41294;DHT22;27037;52.010;4.446;2023-05-10T00:56:57;12.00;99.90
41294;DHT22;27037;52.010;4.446;2023-05-10T00:59:24;12.00;99.90
41294;DHT22;27037;52.010;4.446;2023-05-10T01:01:50;12.00;99.90
41294;DHT22;27037;52.010;4.446;2023-05-10T01:04:16;12.00;99.90
41294;DHT22;27037;52.010;4.446;2023-05-10T01:06:43;12.00;99.90
41294;DHT22;27037;52.010;4.446;2023-05-10T01:09:08;12.00;99.90
41294;DHT22;27037;52.010;4.446;2023-05-10T01:11:35;12.00;99.90
41294;DHT22;27037;52.010;4.446;2023-05-10T01:14:02;12.10;99.90
41294;DHT22;27037;52.010;4.446;2023-05-10T01:16:31;12.10;99.90
41294;DHT22;27037;52.010;4.446;2023-05-10T01:18:57;12.10;99.90
41294;DHT22;27037;52.010;4.446;2023-05-10T01:24:25;12.20;99.90
41294;DHT22;27037;52.010;4.446;2023-05-10T01:38:27;12.30;99.90
41294;DHT22;27037;52.010;4.446;2023-05-10T01:41:14;12.30;99.90
41294;DHT22;27037;52.010;4.446;2023-05-10T01:46:24;12.30;99.90
41294;DHT22;27037;52.010;4.446;2023-05-10T01:48:52;12.30;99.90
41294;DHT22;27037;52.010;4.446;2023-05-10T01:51:24;12.30;99.90
41294;DHT22;27037;52.010;4.446;2023-05-10T01:53:57;12.30;99.90
41294;DHT22;27037;52.010;4.446;2023-05-10T01:56:26;12.40;99.90
41294;DHT22;27037;52.010;4.446;2023-05-10T01:58:54;12.40;99.90
41294;DHT22;27037;52.010;4.446;2023-05-10T02:01:21;12.40;99.90
41294;DHT22;27037;52.010;4.446;2023-05-10T02:03:48;12.40;99.90
41294;DHT22;27037;52.010;4.446;2023-05-10T02:06:16;12.50;99.90
41294;DHT22;27037;52.010;4.446;2023-05-10T02:08:44;12.50;99.90
41294;DHT22;27037;52.010;4.446;2023-05-10T02:11:13;12.50;99.90
41294;DHT22;27037;52.010;4.446;2023-05-10T02:13:39;12.60;99.90
41294;DHT22;27037;52.010;4.446;2023-05-10T02:16:06;12.60;99.90
41294;DHT22;27037;52.010;4.446;2023-05-10T02:18:34;12.60;99.90
41294;DHT22;27037;52.010;4.446;2023-05-10T02:21:01;12.60;99.90
41294;DHT22;27037;52.010;4.446;2023-05-10T02:23:28;12.60;99.90
41294;DHT22;27037;52.010;4.446;2023-05-10T02:25:55;12.70;99.90
41294;DHT22;27037;52.010;4.446;2023-05-10T02:28:23;12.70;99.90
41294;DHT22;27037;52.010;4.446;2023-05-10T02:30:51;12.70;99.90
41294;DHT22;27037;52.010;4.446;2023-05-10T02:33:17;12.70;99.90
41294;DHT22;27037;52.010;4.446;2023-05-10T02:35:44;12.70;99.90
41294;DHT22;27037;52.010;4.446;2023-05-10T02:38:10;12.70;99.90
41294;DHT22;27037;52.010;4.446;2023-05-10T02:40:38;12.70;99.90
41294;DHT22;27037;52.010;4.446;2023-05-10T02:43:04;12.80;99.90
41294;DHT22;27037;52.010;4.446;2023-05-10T02:45:32;12.80;99.90
41294;DHT22;27037;52.010;4.446;2023-05-10T02:47:59;12.80;99.90
41294;DHT22;27037;52.010;4.446;2023-05-10T02:50:30;12.80;99.90
41294;DHT22;27037;52.010;4.446;2023-05-10T02:53:00;12.80;99.90
41294;DHT22;27037;52.010;4.446;2023-05-10T02:55:32;12.80;99.90
41294;DHT22;27037;52.010;4.446;2023-05-10T02:58:00;12.80;99.90
41294;DHT22;27037;52.010;4.446;2023-05-10T03:00:26;12.70;99.90
41294;DHT22;27037;52.010;4.446;2023-05-10T03:02:52;12.70;99.90
41294;DHT22;27037;52.010;4.446;2023-05-10T03:05:17;12.80;99.90
41294;DHT22;27037;52.010;4.446;2023-05-10T03:07:44;12.70;99.90
41294;DHT22;27037;52.010;4.446;2023-05-10T03:10:10;12.70;99.90
41294;DHT22;27037;52.010;4.446;2023-05-10T03:15:36;12.80;99.90
41294;DHT22;27037;52.010;4.446;2023-05-10T03:18:33;12.80;99.90
41294;DHT22;27037;52.010;4.446;2023-05-10T03:21:00;12.80;99.90
41294;DHT22;27037;52.010;4.446;2023-05-10T03:23:44;12.70;99.90
41294;DHT22;27037;52.010;4.446;2023-05-10T03:26:17;12.80;99.90
41294;DHT22;27037;52.010;4.446;2023-05-10T03:28:45;12.70;99.90
41294;DHT22;27037;52.010;4.446;2023-05-10T03:31:12;12.70;99.90
41294;DHT22;27037;52.010;4.446;2023-05-10T03:33:49;12.70;99.90
41294;DHT22;27037;52.010;4.446;2023-05-10T03:36:15;12.80;99.90
41294;DHT22;27037;52.010;4.446;2023-05-10T03:38:41;12.70;99.90
41294;DHT22;27037;52.010;4.446;2023-05-10T03:41:06;12.70;99.90
41294;DHT22;27037;52.010;4.446;2023-05-10T03:43:32;12.70;99.90
41294;DHT22;27037;52.010;4.446;2023-05-10T03:45:58;12.70;99.90
41294;DHT22;27037;52.010;4.446;2023-05-10T03:48:23;12.70;99.90
41294;DHT22;27037;52.010;4.446;2023-05-10T03:50:49;12.70;99.90
41294;DHT22;27037;52.010;4.446;2023-05-10T03:53:15;12.70;99.90
41294;DHT22;27037;52.010;4.446;2023-05-10T03:55:41;12.80;99.90
41294;DHT22;27037;52.010;4.446;2023-05-10T03:58:06;12.80;99.90
41294;DHT22;27037;52.010;4.446;2023-05-10T04:00:32;12.80;99.90
41294;DHT22;27037;52.010;4.446;2023-05-10T04:02:58;12.80;99.90
41294;DHT22;27037;52.010;4.446;2023-05-10T04:05:24;12.80;99.90
41294;DHT22;27037;52.010;4.446;2023-05-10T04:07:49;12.80;99.90
41294;DHT22;27037;52.010;4.446;2023-05-10T04:10:16;12.80;99.90
41294;DHT22;27037;52.010;4.446;2023-05-10T04:12:41;12.70;99.90
41294;DHT22;27037;52.010;4.446;2023-05-10T04:15:07;12.70;99.90
41294;DHT22;27037;52.010;4.446;2023-05-10T04:17:33;12.70;99.90
41294;DHT22;27037;52.010;4.446;2023-05-10T04:19:59;12.70;99.90
41294;DHT22;27037;52.010;4.446;2023-05-10T04:22:24;12.60;99.90
41294;DHT22;27037;52.010;4.446;2023-05-10T04:24:50;12.60;99.90
41294;DHT22;27037;52.010;4.446;2023-05-10T04:27:15;12.60;99.90
41294;DHT22;27037;52.010;4.446;2023-05-10T04:29:41;12.60;99.90
41294;DHT22;27037;52.010;4.446;2023-05-10T04:32:07;12.60;99.90
41294;DHT22;27037;52.010;4.446;2023-05-10T04:34:33;12.50;99.90
41294;DHT22;27037;52.010;4.446;2023-05-10T04:36:59;12.40;99.90
41294;DHT22;27037;52.010;4.446;2023-05-10T04:39:25;12.40;99.90
41294;DHT22;27037;52.010;4.446;2023-05-10T04:41:50;12.40;99.90
41294;DHT22;27037;52.010;4.446;2023-05-10T04:44:16;12.40;99.90
41294;DHT22;27037;52.010;4.446;2023-05-10T04:46:42;12.40;99.90
41294;DHT22;27037;52.010;4.446;2023-05-10T04:49:07;12.30;99.90
41294;DHT22;27037;52.010;4.446;2023-05-10T04:51:33;12.30;99.90
41294;DHT22;27037;52.010;4.446;2023-05-10T04:53:58;12.30;99.90
41294;DHT22;27037;52.010;4.446;2023-05-10T04:56:24;12.30;99.90
41294;DHT22;27037;52.010;4.446;2023-05-10T04:58:49;12.30;99.90
41294;DHT22;27037;52.010;4.446;2023-05-10T05:01:15;12.40;99.90
41294;DHT22;27037;52.010;4.446;2023-05-10T05:03:41;12.40;99.90
41294;DHT22;27037;52.010;4.446;2023-05-10T05:06:06;12.30;99.90
41294;DHT22;27037;52.010;4.446;2023-05-10T05:08:32;12.30;99.90
41294;DHT22;27037;52.010;4.446;2023-05-10T05:10:57;12.40;99.90
41294;DHT22;27037;52.010;4.446;2023-05-10T05:13:24;12.30;99.90
41294;DHT22;27037;52.010;4.446;2023-05-10T05:15:50;12.40;99.90
41294;DHT22;27037;52.010;4.446;2023-05-10T05:18:15;12.30;99.90
41294;DHT22;27037;52.010;4.446;2023-05-10T05:20:41;12.30;99.90
41294;DHT22;27037;52.010;4.446;2023-05-10T05:23:07;12.30;99.90
41294;DHT22;27037;52.010;4.446;2023-05-10T05:25:32;12.40;99.90
41294;DHT22;27037;52.010;4.446;2023-05-10T05:27:58;12.30;99.90
41294;DHT22;27037;52.010;4.446;2023-05-10T05:30:23;12.30;99.90
41294;DHT22;27037;52.010;4.446;2023-05-10T05:32:49;12.30;99.90
41294;DHT22;27037;52.010;4.446;2023-05-10T05:35:14;12.30;99.90
41294;DHT22;27037;52.010;4.446;2023-05-10T05:37:40;12.40;99.90
41294;DHT22;27037;52.010;4.446;2023-05-10T05:40:06;12.40;99.90
41294;DHT22;27037;52.010;4.446;2023-05-10T05:42:32;12.40;99.90
41294;DHT22;27037;52.010;4.446;2023-05-10T05:44:58;12.50;99.90
41294;DHT22;27037;52.010;4.446;2023-05-10T05:47:24;12.50;99.90
41294;DHT22;27037;52.010;4.446;2023-05-10T05:49:50;12.50;99.90
41294;DHT22;27037;52.010;4.446;2023-05-10T05:52:15;12.50;99.90
41294;DHT22;27037;52.010;4.446;2023-05-10T05:54:41;12.60;99.90
41294;DHT22;27037;52.010;4.446;2023-05-10T05:57:07;12.60;99.90
41294;DHT22;27037;52.010;4.446;2023-05-10T05:59:32;12.60;99.90
41294;DHT22;27037;52.010;4.446;2023-05-10T06:01:58;12.60;99.90
41294;DHT22;27037;52.010;4.446;2023-05-10T06:04:24;12.60;99.90
41294;DHT22;27037;52.010;4.446;2023-05-10T06:06:49;12.60;99.90
41294;DHT22;27037;52.010;4.446;2023-05-10T06:09:15;12.70;99.90
41294;DHT22;27037;52.010;4.446;2023-05-10T06:11:41;12.70;99.90
41294;DHT22;27037;52.010;4.446;2023-05-10T06:14:06;12.80;99.90
41294;DHT22;27037;52.010;4.446;2023-05-10T06:16:34;12.90;99.90
41294;DHT22;27037;52.010;4.446;2023-05-10T06:18:59;12.90;99.90
41294;DHT22;27037;52.010;4.446;2023-05-10T06:21:25;13.00;99.90
41294;DHT22;27037;52.010;4.446;2023-05-10T06:23:51;13.10;99.90
41294;DHT22;27037;52.010;4.446;2023-05-10T06:26:16;13.20;99.90
41294;DHT22;27037;52.010;4.446;2023-05-10T06:28:42;13.30;99.90
41294;DHT22;27037;52.010;4.446;2023-05-10T06:31:08;13.30;99.90
41294;DHT22;27037;52.010;4.446;2023-05-10T06:33:33;13.40;99.90
41294;DHT22;27037;52.010;4.446;2023-05-10T06:35:59;13.50;99.90
41294;DHT22;27037;52.010;4.446;2023-05-10T06:38:25;13.60;99.90
41294;DHT22;27037;52.010;4.446;2023-05-10T06:40:51;13.60;99.90
41294;DHT22;27037;52.010;4.446;2023-05-10T06:43:17;13.60;99.90
41294;DHT22;27037;52.010;4.446;2023-05-10T06:45:42;13.60;99.90
41294;DHT22;27037;52.010;4.446;2023-05-10T06:48:08;13.70;99.90
41294;DHT22;27037;52.010;4.446;2023-05-10T06:50:34;13.70;99.90
41294;DHT22;27037;52.010;4.446;2023-05-10T06:53:00;13.70;99.90
41294;DHT22;27037;52.010;4.446;2023-05-10T06:55:27;13.80;99.90
41294;DHT22;27037;52.010;4.446;2023-05-10T06:57:52;13.80;99.90
41294;DHT22;27037;52.010;4.446;2023-05-10T07:00:19;13.90;99.90
41294;DHT22;27037;52.010;4.446;2023-05-10T07:02:45;13.90;99.90
41294;DHT22;27037;52.010;4.446;2023-05-10T07:05:10;14.00;99.90
41294;DHT22;27037;52.010;4.446;2023-05-10T07:07:37;14.00;99.90
41294;DHT22;27037;52.010;4.446;2023-05-10T07:10:03;14.00;99.90
41294;DHT22;27037;52.010;4.446;2023-05-10T07:12:28;14.00;99.90
41294;DHT22;27037;52.010;4.446;2023-05-10T07:14:54;14.00;99.90
41294;DHT22;27037;52.010;4.446;2023-05-10T07:17:20;13.90;99.90
41294;DHT22;27037;52.010;4.446;2023-05-10T07:19:46;13.90;99.90
41294;DHT22;27037;52.010;4.446;2023-05-10T07:22:11;13.90;99.90
41294;DHT22;27037;52.010;4.446;2023-05-10T07:24:38;13.90;99.90
41294;DHT22;27037;52.010;4.446;2023-05-10T07:27:04;14.00;99.90
41294;DHT22;27037;52.010;4.446;2023-05-10T07:29:30;14.00;99.90
41294;DHT22;27037;52.010;4.446;2023-05-10T07:31:55;14.10;99.90
41294;DHT22;27037;52.010;4.446;2023-05-10T07:34:21;14.10;99.90
41294;DHT22;27037;52.010;4.446;2023-05-10T07:36:47;14.10;99.90
41294;DHT22;27037;52.010;4.446;2023-05-10T07:39:13;14.10;99.90
41294;DHT22;27037;52.010;4.446;2023-05-10T07:41:38;14.10;99.90
41294;DHT22;27037;52.010;4.446;2023-05-10T07:44:04;14.20;99.90
41294;DHT22;27037;52.010;4.446;2023-05-10T07:46:30;14.20;99.90
41294;DHT22;27037;52.010;4.446;2023-05-10T07:48:56;14.20;99.90
41294;DHT22;27037;52.010;4.446;2023-05-10T07:51:21;14.10;99.90
41294;DHT22;27037;52.010;4.446;2023-05-10T07:53:47;14.10;99.90
41294;DHT22;27037;52.010;4.446;2023-05-10T07:56:30;14.10;99.90
41294;DHT22;27037;52.010;4.446;2023-05-10T07:58:57;14.10;99.90
41294;DHT22;27037;52.010;4.446;2023-05-10T08:01:24;14.10;99.90
41294;DHT22;27037;52.010;4.446;2023-05-10T08:03:50;14.20;99.90
41294;DHT22;27037;52.010;4.446;2023-05-10T08:06:17;14.20;99.90
41294;DHT22;27037;52.010;4.446;2023-05-10T08:08:43;14.20;99.90
41294;DHT22;27037;52.010;4.446;2023-05-10T08:11:11;14.20;99.90
41294;DHT22;27037;52.010;4.446;2023-05-10T08:13:36;14.20;99.90
41294;DHT22;27037;52.010;4.446;2023-05-10T08:16:02;14.20;99.90
41294;DHT22;27037;52.010;4.446;2023-05-10T08:18:27;14.30;99.90
41294;DHT22;27037;52.010;4.446;2023-05-10T08:20:53;14.30;99.90
41294;DHT22;27037;52.010;4.446;2023-05-10T08:23:19;14.40;99.90
41294;DHT22;27037;52.010;4.446;2023-05-10T08:25:44;14.40;99.90
41294;DHT22;27037;52.010;4.446;2023-05-10T08:28:10;14.40;99.90
41294;DHT22;27037;52.010;4.446;2023-05-10T08:30:36;14.50;99.90
41294;DHT22;27037;52.010;4.446;2023-05-10T08:33:01;14.50;99.90
41294;DHT22;27037;52.010;4.446;2023-05-10T08:35:27;14.50;99.90
41294;DHT22;27037;52.010;4.446;2023-05-10T08:37:52;14.60;99.90
41294;DHT22;27037;52.010;4.446;2023-05-10T08:40:19;14.60;99.90
41294;DHT22;27037;52.010;4.446;2023-05-10T08:43:04;14.70;99.90
41294;DHT22;27037;52.010;4.446;2023-05-10T08:45:33;14.80;99.90
41294;DHT22;27037;52.010;4.446;2023-05-10T08:48:02;14.80;99.90
41294;DHT22;27037;52.010;4.446;2023-05-10T08:50:28;14.80;99.90
41294;DHT22;27037;52.010;4.446;2023-05-10T08:52:59;14.90;99.90
41294;DHT22;27037;52.010;4.446;2023-05-10T08:55:25;14.90;99.90
41294;DHT22;27037;52.010;4.446;2023-05-10T08:57:51;14.90;99.90
41294;DHT22;27037;52.010;4.446;2023-05-10T09:00:18;14.90;99.90
41294;DHT22;27037;52.010;4.446;2023-05-10T09:02:44;15.00;99.90
41294;DHT22;27037;52.010;4.446;2023-05-10T09:05:12;15.00;99.90
41294;DHT22;27037;52.010;4.446;2023-05-10T09:07:37;15.00;99.90
41294;DHT22;27037;52.010;4.446;2023-05-10T09:10:04;15.00;99.90
41294;DHT22;27037;52.010;4.446;2023-05-10T09:12:30;15.00;99.90
41294;DHT22;27037;52.010;4.446;2023-05-10T09:14:56;15.00;99.90
41294;DHT22;27037;52.010;4.446;2023-05-10T09:17:24;15.00;99.90
41294;DHT22;27037;52.010;4.446;2023-05-10T09:19:50;15.00;99.90
41294;DHT22;27037;52.010;4.446;2023-05-10T09:22:16;14.90;99.90
41294;DHT22;27037;52.010;4.446;2023-05-10T09:24:42;14.80;99.90
41294;DHT22;27037;52.010;4.446;2023-05-10T09:27:10;14.80;99.90
41294;DHT22;27037;52.010;4.446;2023-05-10T09:29:41;14.80;99.90
41294;DHT22;27037;52.010;4.446;2023-05-10T09:32:06;14.90;99.90
41294;DHT22;27037;52.010;4.446;2023-05-10T09:34:32;15.00;99.90
41294;DHT22;27037;52.010;4.446;2023-05-10T09:37:02;15.00;99.90
41294;DHT22;27037;52.010;4.446;2023-05-10T09:39:36;15.10;99.90
41294;DHT22;27037;52.010;4.446;2023-05-10T09:42:10;15.20;99.90
41294;DHT22;27037;52.010;4.446;2023-05-10T09:44:36;15.40;99.90
41294;DHT22;27037;52.010;4.446;2023-05-10T09:47:02;15.60;99.90
41294;DHT22;27037;52.010;4.446;2023-05-10T09:49:28;15.70;99.90
41294;DHT22;27037;52.010;4.446;2023-05-10T09:52:00;15.80;99.90
41294;DHT22;27037;52.010;4.446;2023-05-10T09:54:27;16.00;99.90
41294;DHT22;27037;52.010;4.446;2023-05-10T09:56:52;16.00;99.90
41294;DHT22;27037;52.010;4.446;2023-05-10T09:59:18;16.10;99.90
41294;DHT22;27037;52.010;4.446;2023-05-10T10:01:49;16.20;99.90
41294;DHT22;27037;52.010;4.446;2023-05-10T10:04:15;16.30;99.90
41294;DHT22;27037;52.010;4.446;2023-05-10T10:06:41;16.50;99.90
41294;DHT22;27037;52.010;4.446;2023-05-10T10:09:07;16.70;99.90
41294;DHT22;27037;52.010;4.446;2023-05-10T10:11:38;16.90;99.90
41294;DHT22;27037;52.010;4.446;2023-05-10T10:14:04;17.00;99.90
41294;DHT22;27037;52.010;4.446;2023-05-10T10:16:30;17.00;99.90
41294;DHT22;27037;52.010;4.446;2023-05-10T10:18:57;17.00;99.90
41294;DHT22;27037;52.010;4.446;2023-05-10T10:21:23;16.90;99.90
41294;DHT22;27037;52.010;4.446;2023-05-10T10:23:49;16.80;99.90
41294;DHT22;27037;52.010;4.446;2023-05-10T10:26:17;16.70;99.90
41294;DHT22;27037;52.010;4.446;2023-05-10T10:31:45;16.40;99.90
41294;DHT22;27037;52.010;4.446;2023-05-10T10:34:28;16.20;99.90
41294;DHT22;27037;52.010;4.446;2023-05-10T10:36:55;16.20;99.90
41294;DHT22;27037;52.010;4.446;2023-05-10T10:39:22;16.10;99.90
41294;DHT22;27037;52.010;4.446;2023-05-10T10:41:52;16.10;99.90
41294;DHT22;27037;52.010;4.446;2023-05-10T10:52:42;16.00;99.90
41294;DHT22;27037;52.010;4.446;2023-05-10T10:55:08;16.00;99.90
41294;DHT22;27037;52.010;4.446;2023-05-10T11:02:47;15.90;99.90
41294;DHT22;27037;52.010;4.446;2023-05-10T11:07:55;15.80;99.90
41294;DHT22;27037;52.010;4.446;2023-05-10T11:10:22;15.80;99.90
41294;DHT22;27037;52.010;4.446;2023-05-10T11:15:39;15.80;99.90
41294;DHT22;27037;52.010;4.446;2023-05-10T11:18:28;15.80;99.90
41294;DHT22;27037;52.010;4.446;2023-05-10T11:21:01;15.80;99.90
41294;DHT22;27037;52.010;4.446;2023-05-10T11:26:13;15.90;99.90
41294;DHT22;27037;52.010;4.446;2023-05-10T11:28:43;15.90;99.90
41294;DHT22;27037;52.010;4.446;2023-05-10T11:31:09;16.00;99.90
41294;DHT22;27037;52.010;4.446;2023-05-10T11:33:52;16.00;99.90
41294;DHT22;27037;52.010;4.446;2023-05-10T11:36:23;16.10;99.90
41294;DHT22;27037;52.010;4.446;2023-05-10T11:38:49;16.20;99.90
41294;DHT22;27037;52.010;4.446;2023-05-10T11:41:16;16.20;99.90
41294;DHT22;27037;52.010;4.446;2023-05-10T11:43:42;16.20;99.90
41294;DHT22;27037;52.010;4.446;2023-05-10T11:46:10;16.20;99.90
41294;DHT22;27037;52.010;4.446;2023-05-10T11:48:39;16.20;99.90
41294;DHT22;27037;52.010;4.446;2023-05-10T11:51:07;16.20;99.90
41294;DHT22;27037;52.010;4.446;2023-05-10T11:53:33;16.30;99.90
41294;DHT22;27037;52.010;4.446;2023-05-10T11:56:11;16.20;99.90
41294;DHT22;27037;52.010;4.446;2023-05-10T11:58:38;16.30;99.90
41294;DHT22;27037;52.010;4.446;2023-05-10T12:01:05;16.30;99.90
41294;DHT22;27037;52.010;4.446;2023-05-10T12:03:32;16.20;99.90
41294;DHT22;27037;52.010;4.446;2023-05-10T12:05:58;16.30;99.90
41294;DHT22;27037;52.010;4.446;2023-05-10T12:08:26;16.30;99.90
41294;DHT22;27037;52.010;4.446;2023-05-10T12:10:53;16.30;99.90
41294;DHT22;27037;52.010;4.446;2023-05-10T12:13:20;16.30;99.90
41294;DHT22;27037;52.010;4.446;2023-05-10T12:15:46;16.30;99.90
41294;DHT22;27037;52.010;4.446;2023-05-10T12:18:13;16.20;99.90
41294;DHT22;27037;52.010;4.446;2023-05-10T12:20:40;16.10;99.90
41294;DHT22;27037;52.010;4.446;2023-05-10T12:23:08;16.00;99.90
41294;DHT22;27037;52.010;4.446;2023-05-10T12:25:35;15.90;99.90
41294;DHT22;27037;52.010;4.446;2023-05-10T12:28:07;15.80;99.90
41294;DHT22;27037;52.010;4.446;2023-05-10T12:30:34;15.80;99.90
41294;DHT22;27037;52.010;4.446;2023-05-10T12:33:12;15.80;99.90
41294;DHT22;27037;52.010;4.446;2023-05-10T12:35:49;15.80;99.90
41294;DHT22;27037;52.010;4.446;2023-05-10T12:38:34;15.90;99.90
41294;DHT22;27037;52.010;4.446;2023-05-10T12:41:06;15.90;99.90
41294;DHT22;27037;52.010;4.446;2023-05-10T12:43:32;16.00;99.90
41294;DHT22;27037;52.010;4.446;2023-05-10T12:45:58;16.00;99.90
41294;DHT22;27037;52.010;4.446;2023-05-10T12:48:24;16.00;99.90
41294;DHT22;27037;52.010;4.446;2023-05-10T12:50:50;16.00;99.90
41294;DHT22;27037;52.010;4.446;2023-05-10T12:53:16;16.00;99.90
41294;DHT22;27037;52.010;4.446;2023-05-10T12:55:43;16.00;99.90
41294;DHT22;27037;52.010;4.446;2023-05-10T12:58:08;16.10;99.90
41294;DHT22;27037;52.010;4.446;2023-05-10T13:00:34;16.20;99.90
41294;DHT22;27037;52.010;4.446;2023-05-10T13:03:00;16.30;99.90
41294;DHT22;27037;52.010;4.446;2023-05-10T13:05:26;16.40;99.90
41294;DHT22;27037;52.010;4.446;2023-05-10T13:07:51;16.50;99.90
41294;DHT22;27037;52.010;4.446;2023-05-10T13:10:17;16.50;99.90
41294;DHT22;27037;52.010;4.446;2023-05-10T13:12:42;16.50;99.90
41294;DHT22;27037;52.010;4.446;2023-05-10T13:15:08;16.50;99.90
41294;DHT22;27037;52.010;4.446;2023-05-10T13:17:34;16.40;99.90
41294;DHT22;27037;52.010;4.446;2023-05-10T13:19:59;16.40;99.90
41294;DHT22;27037;52.010;4.446;2023-05-10T13:22:25;16.40;99.90
41294;DHT22;27037;52.010;4.446;2023-05-10T13:24:51;16.30;99.90
41294;DHT22;27037;52.010;4.446;2023-05-10T13:27:16;16.20;99.90
41294;DHT22;27037;52.010;4.446;2023-05-10T13:29:42;16.20;99.90
41294;DHT22;27037;52.010;4.446;2023-05-10T13:32:07;16.20;99.90
41294;DHT22;27037;52.010;4.446;2023-05-10T13:34:33;16.20;99.90
41294;DHT22;27037;52.010;4.446;2023-05-10T13:37:01;16.20;99.90
41294;DHT22;27037;52.010;4.446;2023-05-10T13:39:26;16.10;99.90
41294;DHT22;27037;52.010;4.446;2023-05-10T13:41:52;16.10;99.90
41294;DHT22;27037;52.010;4.446;2023-05-10T13:44:18;16.10;99.90
41294;DHT22;27037;52.010;4.446;2023-05-10T13:46:43;16.10;99.90
41294;DHT22;27037;52.010;4.446;2023-05-10T13:49:09;16.00;99.90
41294;DHT22;27037;52.010;4.446;2023-05-10T13:51:35;15.90;99.90
41294;DHT22;27037;52.010;4.446;2023-05-10T13:54:04;15.90;99.90
41294;DHT22;27037;52.010;4.446;2023-05-10T13:56:30;15.90;99.90
41294;DHT22;27037;52.010;4.446;2023-05-10T13:58:57;15.90;99.90
41294;DHT22;27037;52.010;4.446;2023-05-10T14:01:23;15.90;99.90
41294;DHT22;27037;52.010;4.446;2023-05-10T14:03:49;15.80;99.90
41294;DHT22;27037;52.010;4.446;2023-05-10T14:06:14;15.80;99.90
41294;DHT22;27037;52.010;4.446;2023-05-10T14:08:40;15.80;99.90
41294;DHT22;27037;52.010;4.446;2023-05-10T14:11:06;15.90;99.90
41294;DHT22;27037;52.010;4.446;2023-05-10T14:13:31;15.90;99.90
41294;DHT22;27037;52.010;4.446;2023-05-10T14:15:57;15.90;99.90
41294;DHT22;27037;52.010;4.446;2023-05-10T14:18:26;15.90;99.90
41294;DHT22;27037;52.010;4.446;2023-05-10T14:20:52;15.90;99.90
41294;DHT22;27037;52.010;4.446;2023-05-10T14:23:17;16.00;99.90
41294;DHT22;27037;52.010;4.446;2023-05-10T14:25:45;16.10;99.90
41294;DHT22;27037;52.010;4.446;2023-05-10T14:28:10;16.10;99.90
41294;DHT22;27037;52.010;4.446;2023-05-10T14:30:37;16.20;99.90
41294;DHT22;27037;52.010;4.446;2023-05-10T14:33:03;16.20;99.90
41294;DHT22;27037;52.010;4.446;2023-05-10T14:35:29;16.20;99.90
41294;DHT22;27037;52.010;4.446;2023-05-10T14:37:56;16.20;99.90
41294;DHT22;27037;52.010;4.446;2023-05-10T14:40:22;16.20;99.90
41294;DHT22;27037;52.010;4.446;2023-05-10T14:42:48;16.20;99.90
41294;DHT22;27037;52.010;4.446;2023-05-10T14:45:13;16.20;99.90
41294;DHT22;27037;52.010;4.446;2023-05-10T14:47:39;16.30;99.90
41294;DHT22;27037;52.010;4.446;2023-05-10T14:50:05;16.30;99.90
41294;DHT22;27037;52.010;4.446;2023-05-10T14:52:31;16.30;99.90
41294;DHT22;27037;52.010;4.446;2023-05-10T14:54:56;16.40;99.90
41294;DHT22;27037;52.010;4.446;2023-05-10T14:57:24;16.50;99.90
41294;DHT22;27037;52.010;4.446;2023-05-10T14:59:49;16.50;99.90
41294;DHT22;27037;52.010;4.446;2023-05-10T15:02:15;16.50;99.90
41294;DHT22;27037;52.010;4.446;2023-05-10T15:04:41;16.50;99.90
41294;DHT22;27037;52.010;4.446;2023-05-10T15:07:07;16.50;99.90
41294;DHT22;27037;52.010;4.446;2023-05-10T15:09:32;16.60;99.90
41294;DHT22;27037;52.010;4.446;2023-05-10T15:11:58;16.60;99.90
41294;DHT22;27037;52.010;4.446;2023-05-10T15:14:23;16.60;99.90
41294;DHT22;27037;52.010;4.446;2023-05-10T15:16:49;16.60;99.90
41294;DHT22;27037;52.010;4.446;2023-05-10T15:19:15;16.60;99.90
41294;DHT22;27037;52.010;4.446;2023-05-10T15:21:40;16.50;99.90
41294;DHT22;27037;52.010;4.446;2023-05-10T15:24:09;16.50;99.90
41294;DHT22;27037;52.010;4.446;2023-05-10T15:26:35;16.50;99.90
41294;DHT22;27037;52.010;4.446;2023-05-10T15:29:00;16.50;99.90
41294;DHT22;27037;52.010;4.446;2023-05-10T15:31:26;16.60;99.90
41294;DHT22;27037;52.010;4.446;2023-05-10T15:33:57;16.50;99.90
41294;DHT22;27037;52.010;4.446;2023-05-10T15:36:23;16.50;99.90
41294;DHT22;27037;52.010;4.446;2023-05-10T15:38:49;16.50;99.90
41294;DHT22;27037;52.010;4.446;2023-05-10T15:41:14;16.60;99.90
41294;DHT22;27037;52.010;4.446;2023-05-10T15:43:40;16.60;99.90
41294;DHT22;27037;52.010;4.446;2023-05-10T15:46:06;16.70;99.90
41294;DHT22;27037;52.010;4.446;2023-05-10T15:48:31;16.70;99.90
41294;DHT22;27037;52.010;4.446;2023-05-10T15:50:57;16.70;99.90
41294;DHT22;27037;52.010;4.446;2023-05-10T15:53:23;16.70;99.90
41294;DHT22;27037;52.010;4.446;2023-05-10T15:55:48;16.80;99.90
41294;DHT22;27037;52.010;4.446;2023-05-10T15:58:14;16.80;99.90
41294;DHT22;27037;52.010;4.446;2023-05-10T16:00:40;16.80;99.90
41294;DHT22;27037;52.010;4.446;2023-05-10T16:03:06;16.80;99.90
41294;DHT22;27037;52.010;4.446;2023-05-10T16:05:32;16.80;99.90
41294;DHT22;27037;52.010;4.446;2023-05-10T16:07:58;16.70;99.90
41294;DHT22;27037;52.010;4.446;2023-05-10T16:10:24;16.70;99.90
41294;DHT22;27037;52.010;4.446;2023-05-10T16:12:50;16.70;99.90